Airfield :
LOGIN :

Register | Disclaimer

   EN    FR    IT 

 










Legend :    VFR   Marginal VFR   IFR   Intensive IFR   Very Intensive IFR
Visi :
Ceiling :
>= 8 km
>= 3000ft
5 to 8 km
1000 to 3000 ft
1500m to 5 km
500 to 1000 ft
800 to 1500m
200 to 500 ft
< 800m
< 200 ft
Symbols :   Thunderstorms  Fog  Heavy snow  Heavy precipitations  Wind > 20 kt
SIGMETs :     Misc.  Thunderstorms  Icing  Turbulence  Mountain Waves  Volcanic Ashes







- Airport Elevation : 526 ft
- IATA code : LTN
- Download approach charts


EGGW - London Luton

CURRENT METAR :
  • 211520Z AUTO 14005KT 9999 -RA SCT027 BKN034 20/14 Q1018

EXPIRED METARs :
  • 211450Z AUTO 14006KT 110V180 9999 -RA FEW034 21/14 Q1018
  • 211420Z AUTO 12005KT 9999 NCD 21/13 Q1019
  • 211350Z AUTO 15005KT 120V180 9999 NCD 21/13 Q1019
  • 211320Z AUTO 15007KT 130V200 9999 NCD 21/13 Q1019
  • 211250Z AUTO 16006KT 130V210 9999 NCD 22/12 Q1020

TAF TAF EGGW
Valid from the 21 at 12:00 until the 22 at 12:00 UTC


211056Z 2112/2212 14006KT 9999 FEW045
PROB30
TEMPO 2118/2203 VRB15G25KT 5000 +SHRA TSGR
PROB40 2203/2209 8000
BECMG 2206/2209 21010KT
ATIS : +44 1582 395 204
No reported NOTAMs for that airfield.



MET'MAP, your aeronautical weather chart ! - Copyright ORBIFLY December 2007 - Disclaimer

ORBIFLY MET'MAP TEAM :

Programming & Development : Alexandra Zaïnal
Concept & Development : Baudouin d'Aumeries
Co-Development & Prog : Marc-Olivier Méhu
Technical & hardware support : Manuel Goepfert

Contact : metmap@orbifly.com




SOURCES & CREDITS :

   NOAA